createdAt,value
2023-03-24T00:01:42.112Z,4.63
2023-03-24T00:05:25.265Z,4.40
2023-03-24T00:09:08.103Z,6.57
2023-03-24T00:12:51.610Z,3.60
2023-03-24T00:16:38.438Z,4.37
2023-03-24T00:20:23.995Z,4.07
2023-03-24T00:24:08.576Z,3.77
2023-03-24T00:27:53.237Z,3.37
2023-03-24T00:31:39.891Z,4.13
2023-03-24T00:35:24.271Z,4.83
2023-03-24T00:39:07.327Z,3.53
2023-03-24T00:42:51.084Z,3.47
2023-03-24T00:46:34.088Z,4.20
2023-03-24T00:50:20.413Z,3.70
2023-03-24T00:54:05.076Z,3.87
2023-03-24T00:57:50.940Z,4.83
2023-03-24T01:01:36.666Z,5.67
2023-03-24T01:05:21.100Z,5.47
2023-03-24T01:09:06.083Z,3.73
2023-03-24T01:12:49.252Z,4.50
2023-03-24T01:16:32.359Z,4.37
2023-03-24T01:20:15.652Z,6.77
2023-03-24T01:23:58.964Z,5.47
2023-03-24T01:27:43.225Z,4.77
2023-03-24T01:31:26.225Z,3.90
2023-03-24T01:35:09.554Z,4.37
2023-03-24T01:38:52.417Z,6.33
2023-03-24T01:42:35.257Z,3.30
2023-03-24T01:46:20.772Z,3.83
2023-03-24T01:50:05.199Z,3.30
2023-03-24T01:53:55.618Z,4.17
2023-03-24T01:57:41.880Z,5.03
2023-03-24T02:01:30.082Z,6.70
2023-03-24T02:05:14.469Z,9.10
2023-03-24T02:08:59.313Z,4.23
2023-03-24T02:12:43.434Z,5.60
2023-03-24T02:16:57.653Z,4.20
2023-03-24T02:21:14.885Z,4.60
2023-03-24T02:25:23.483Z,5.20
2023-03-24T02:29:21.615Z,5.60
2023-03-24T02:33:25.742Z,5.97
2023-03-24T02:37:40.875Z,4.13
2023-03-24T02:41:28.439Z,4.47
2023-03-24T02:45:21.412Z,4.43
2023-03-24T02:49:12.390Z,4.13
2023-03-24T02:53:02.825Z,7.67
2023-03-24T02:56:48.939Z,4.70
2023-03-24T03:00:34.520Z,4.97
2023-03-24T03:04:20.048Z,5.63
2023-03-24T03:08:05.531Z,4.40
2023-03-24T03:11:51.631Z,7.07
2023-03-24T03:15:37.043Z,4.37
2023-03-24T03:19:21.903Z,5.37
2023-03-24T03:23:07.744Z,5.43
2023-03-24T03:26:51.912Z,11.50
2023-03-24T03:30:38.209Z,4.67
2023-03-24T03:34:28.459Z,6.17
2023-03-24T03:38:15.935Z,4.27
2023-03-24T03:42:00.578Z,5.23
2023-03-24T03:45:43.645Z,6.33
2023-03-24T03:49:26.724Z,5.90
2023-03-24T03:53:09.812Z,5.63
2023-03-24T03:56:54.000Z,7.23
2023-03-24T04:00:38.562Z,5.53
2023-03-24T04:04:38.038Z,5.63
2023-03-24T04:08:27.438Z,6.30
2023-03-24T04:12:23.362Z,6.57
2023-03-24T04:16:10.088Z,5.57
2023-03-24T04:20:02.785Z,6.07
2023-03-24T04:23:50.566Z,5.57
2023-03-24T04:27:40.071Z,6.03
2023-03-24T04:31:27.948Z,5.03
2023-03-24T04:35:14.624Z,6.80
2023-03-24T04:38:58.238Z,5.80
2023-03-24T04:42:45.427Z,7.97
2023-03-24T04:46:29.562Z,5.53
2023-03-24T04:50:13.158Z,5.67
2023-03-24T04:53:55.895Z,9.20
2023-03-24T04:57:38.922Z,5.23
2023-03-24T05:01:22.450Z,8.07
2023-03-24T05:05:07.429Z,5.57
2023-03-24T05:08:50.053Z,5.37
2023-03-24T05:12:32.760Z,5.63
2023-03-24T05:16:16.102Z,6.40
2023-03-24T05:19:58.846Z,6.80
2023-03-24T05:23:42.893Z,6.17
2023-03-24T05:27:25.753Z,6.17
2023-03-24T05:31:08.571Z,6.50
2023-03-24T05:34:51.950Z,5.93
2023-03-24T05:38:34.578Z,7.00
2023-03-24T05:42:18.692Z,5.87
2023-03-24T05:46:01.387Z,5.63
2023-03-24T05:49:44.118Z,6.43
2023-03-24T05:53:26.847Z,6.83
2023-03-24T05:57:13.538Z,5.40
2023-03-24T06:00:57.653Z,6.17
2023-03-24T06:04:45.988Z,6.57
2023-03-24T06:08:28.904Z,7.00
2023-03-24T06:12:12.422Z,9.73
2023-03-24T06:15:59.349Z,5.57
2023-03-24T06:19:48.813Z,6.83
2023-03-24T06:23:33.896Z,8.07
2023-03-24T06:27:18.805Z,9.70
2023-03-24T06:31:01.492Z,7.33
2023-03-24T06:34:46.991Z,7.33
2023-03-24T06:38:29.679Z,10.87
2023-03-24T06:42:16.048Z,9.93
2023-03-24T06:46:02.076Z,9.13
2023-03-24T06:49:46.340Z,9.30
2023-03-24T06:53:29.030Z,11.80
2023-03-24T06:57:11.848Z,10.27
2023-03-24T07:00:55.259Z,12.77
2023-03-24T07:04:37.956Z,9.63
2023-03-24T07:12:08.201Z,7.60
2023-03-24T07:15:51.367Z,8.03
2023-03-24T07:19:34.068Z,12.27
2023-03-24T07:23:16.846Z,8.70
2023-03-24T07:27:01.048Z,7.43
2023-03-24T07:30:43.821Z,9.37
2023-03-24T07:34:27.088Z,8.80
2023-03-24T07:38:10.295Z,8.77
2023-03-24T07:41:53.086Z,10.83
2023-03-24T07:45:37.194Z,10.63
2023-03-24T07:49:20.365Z,8.67
2023-03-24T07:53:03.118Z,8.17
2023-03-24T07:56:45.928Z,10.00
2023-03-24T08:00:33.081Z,6.07
2023-03-24T08:04:17.534Z,6.00
2023-03-24T08:08:00.267Z,5.13
2023-03-24T08:11:42.939Z,5.67
2023-03-24T08:15:27.123Z,4.73
2023-03-24T08:19:09.942Z,7.10
2023-03-24T08:22:54.490Z,5.93
2023-03-24T08:26:37.739Z,6.17
2023-03-24T08:30:22.117Z,5.27
2023-03-24T08:34:06.492Z,6.40
2023-03-24T08:37:49.369Z,5.53
2023-03-24T08:41:38.193Z,4.70
2023-03-24T08:45:27.492Z,5.00
2023-03-24T08:49:10.683Z,4.70
2023-03-24T08:52:54.747Z,5.33
2023-03-24T08:56:41.472Z,4.27
2023-03-24T09:00:24.812Z,6.10
2023-03-24T09:04:08.240Z,5.77
2023-03-24T09:08:00.610Z,6.13
2023-03-24T09:11:43.285Z,7.40
2023-03-24T09:15:26.308Z,4.37
2023-03-24T09:19:09.196Z,7.33
2023-03-24T09:22:55.823Z,3.63
2023-03-24T09:26:39.799Z,4.00
2023-03-24T09:30:22.488Z,5.20
2023-03-24T09:34:05.119Z,3.17
2023-03-24T09:37:47.843Z,6.67
2023-03-24T09:41:33.921Z,5.17
2023-03-24T09:45:20.426Z,4.50
2023-03-24T09:49:03.962Z,5.60
2023-03-24T09:52:50.336Z,5.43
2023-03-24T09:56:36.788Z,4.13
2023-03-24T10:00:23.993Z,5.40
2023-03-24T10:04:15.035Z,4.70
2023-03-24T10:08:01.175Z,4.00
2023-03-24T10:11:46.994Z,6.13
2023-03-24T10:15:38.235Z,5.90
2023-03-24T10:19:28.448Z,4.33
2023-03-24T10:23:22.835Z,5.20
2023-03-24T10:27:11.200Z,4.10
2023-03-24T10:30:57.343Z,6.30
2023-03-24T10:34:40.640Z,5.97
2023-03-24T10:38:24.116Z,4.77
2023-03-24T10:42:07.235Z,4.30
2023-03-24T10:45:51.928Z,4.20
2023-03-24T10:49:36.071Z,3.67
2023-03-24T10:53:20.290Z,4.33
2023-03-24T10:57:04.666Z,3.97
2023-03-24T11:00:48.713Z,3.70
2023-03-24T11:04:32.152Z,2.97
2023-03-24T11:08:27.009Z,2.90
2023-03-24T11:12:30.507Z,3.43
2023-03-24T11:16:15.117Z,3.27
2023-03-24T11:20:00.077Z,2.37
2023-03-24T11:23:45.589Z,2.10
2023-03-24T11:27:28.491Z,3.83
2023-03-24T11:31:19.130Z,3.37
2023-03-24T11:35:06.046Z,4.17
2023-03-24T11:39:00.325Z,3.00
2023-03-24T11:42:46.069Z,3.43
2023-03-24T11:46:29.242Z,3.40
2023-03-24T11:50:17.640Z,3.03
2023-03-24T11:54:04.409Z,4.50
2023-03-24T11:57:52.965Z,3.40
2023-03-24T12:01:38.682Z,3.53
2023-03-24T12:05:31.697Z,3.97
2023-03-24T12:09:22.166Z,3.93
2023-03-24T12:13:18.787Z,3.43
2023-03-24T12:17:12.557Z,3.40
2023-03-24T12:20:59.692Z,3.63
2023-03-24T12:24:55.001Z,3.00
2023-03-24T12:28:53.472Z,3.33
2023-03-24T12:32:43.150Z,2.80
2023-03-24T12:36:40.024Z,3.47
2023-03-24T12:40:40.065Z,2.30
2023-03-24T12:44:36.926Z,2.27
2023-03-24T12:48:35.187Z,2.27
2023-03-24T12:52:57.964Z,4.30
2023-03-24T12:56:54.251Z,2.23
2023-03-24T13:00:42.654Z,1.97
2023-03-24T13:04:28.443Z,1.90
2023-03-24T13:08:16.515Z,2.80
2023-03-24T13:12:03.828Z,2.90
2023-03-24T13:15:48.667Z,3.40
2023-03-24T13:19:32.262Z,2.57
2023-03-24T13:23:28.737Z,2.70
2023-03-24T13:27:17.420Z,2.97
2023-03-24T13:31:01.803Z,4.57
2023-03-24T13:34:48.985Z,2.90
2023-03-24T13:38:36.430Z,1.50
2023-03-24T13:42:31.597Z,1.30
2023-03-24T13:46:15.083Z,1.17
2023-03-24T13:50:01.880Z,0.97
2023-03-24T13:53:47.088Z,2.23
2023-03-24T13:57:31.400Z,3.00
2023-03-24T14:01:32.764Z,1.17
2023-03-24T14:05:35.859Z,2.53
2023-03-24T14:09:21.893Z,1.80
2023-03-24T14:13:06.676Z,3.07
2023-03-24T14:16:52.979Z,1.20
2023-03-24T14:20:37.370Z,3.43
2023-03-24T14:24:25.403Z,1.40
2023-03-24T14:28:21.437Z,1.63
2023-03-24T14:32:17.185Z,2.80
2023-03-24T14:36:06.680Z,1.23
2023-03-24T14:39:50.065Z,1.27
2023-03-24T14:43:54.453Z,1.23
2023-03-24T14:47:39.562Z,2.20
2023-03-24T14:51:36.704Z,3.97
2023-03-24T14:55:20.087Z,1.63
2023-03-24T14:59:08.873Z,1.10
2023-03-24T15:02:52.502Z,2.10
2023-03-24T15:06:44.539Z,2.63
2023-03-24T15:10:27.294Z,1.80
2023-03-24T15:14:20.220Z,1.67
2023-03-24T15:18:03.077Z,1.63
2023-03-24T15:21:48.480Z,1.10
2023-03-24T15:25:31.691Z,1.13
2023-03-24T15:29:16.001Z,1.10
2023-03-24T15:32:58.756Z,2.10
2023-03-24T15:36:46.265Z,1.27
2023-03-24T15:40:33.779Z,1.30
2023-03-24T15:44:21.461Z,3.30
2023-03-24T15:48:06.953Z,1.10
2023-03-24T15:51:51.326Z,1.30
2023-03-24T15:55:35.865Z,1.50
2023-03-24T15:59:19.816Z,1.40
2023-03-24T16:03:04.719Z,0.83
2023-03-24T16:06:52.271Z,1.47
2023-03-24T16:10:40.575Z,1.30
2023-03-24T16:14:26.885Z,2.43
2023-03-24T16:18:15.128Z,2.87
2023-03-24T16:21:58.035Z,2.03
2023-03-24T16:25:41.489Z,4.17
2023-03-24T16:29:25.504Z,2.47
2023-03-24T16:33:08.330Z,2.60
2023-03-24T16:36:53.004Z,2.27
2023-03-24T16:40:39.098Z,3.37
2023-03-24T16:44:22.386Z,2.47
2023-03-24T16:48:06.848Z,2.07
2023-03-24T16:51:49.612Z,1.80
2023-03-24T16:55:32.483Z,2.43
2023-03-24T16:59:15.962Z,5.33
2023-03-24T17:02:59.863Z,1.20
2023-03-24T17:06:47.047Z,1.23
2023-03-24T17:10:29.838Z,1.30
2023-03-24T17:14:13.122Z,1.23
2023-03-24T17:17:56.477Z,4.07
2023-03-24T17:21:41.748Z,1.47
2023-03-24T17:25:29.104Z,1.30
2023-03-24T17:29:13.122Z,1.00
2023-03-24T17:32:57.760Z,3.03
2023-03-24T17:36:40.935Z,1.40
2023-03-24T17:40:24.938Z,1.33
2023-03-24T17:44:07.633Z,3.17
2023-03-24T17:47:50.748Z,1.73
2023-03-24T17:51:33.519Z,1.53
2023-03-24T17:55:17.922Z,1.63
2023-03-24T17:59:03.399Z,1.83
2023-03-24T18:02:47.011Z,1.50
2023-03-24T18:06:30.764Z,1.30
2023-03-24T18:10:13.941Z,1.30
2023-03-24T18:13:56.706Z,1.83
2023-03-24T18:17:40.739Z,2.50
2023-03-24T18:21:23.451Z,2.23
2023-03-24T18:25:08.539Z,2.00
2023-03-24T18:28:51.514Z,0.90
2023-03-24T18:32:35.810Z,2.67
2023-03-24T18:36:26.206Z,1.57
2023-03-24T18:40:10.100Z,1.30
2023-03-24T18:43:52.742Z,1.43
2023-03-24T18:47:36.402Z,1.67
2023-03-24T18:51:20.853Z,1.43
2023-03-24T18:55:03.456Z,4.13
2023-03-24T18:58:49.227Z,3.50
2023-03-24T19:02:33.462Z,1.13
2023-03-24T19:06:16.990Z,1.60
2023-03-24T19:10:01.027Z,1.70
2023-03-24T19:13:46.145Z,1.40
2023-03-24T19:17:28.958Z,1.30
2023-03-24T19:21:11.933Z,2.40
2023-03-24T19:24:54.681Z,1.10
2023-03-24T19:28:38.684Z,1.83
2023-03-24T19:32:21.343Z,3.57
2023-03-24T19:36:04.509Z,1.40
2023-03-24T19:39:47.213Z,1.53
2023-03-24T19:43:29.870Z,1.23
2023-03-24T19:47:13.849Z,1.20
2023-03-24T19:50:56.817Z,2.50
2023-03-24T19:54:39.536Z,1.23
2023-03-24T19:58:22.197Z,1.33
2023-03-24T20:02:04.857Z,2.00
2023-03-24T20:05:49.303Z,1.27
2023-03-24T20:09:32.265Z,2.80
2023-03-24T20:13:14.951Z,1.50
2023-03-24T20:16:57.638Z,1.20
2023-03-24T20:20:40.326Z,1.80
2023-03-24T20:24:24.473Z,2.60
2023-03-24T20:28:07.766Z,1.00
2023-03-24T20:31:50.663Z,4.37
2023-03-24T20:35:35.162Z,0.97
2023-03-24T20:39:20.446Z,2.47
2023-03-24T20:43:04.418Z,1.10
2023-03-24T20:46:47.059Z,1.23
2023-03-24T20:50:29.974Z,1.17
2023-03-24T20:54:13.412Z,1.50
2023-03-24T20:57:56.498Z,1.43
2023-03-24T21:01:41.967Z,1.53
2023-03-24T21:05:24.635Z,1.40
2023-03-24T21:09:07.729Z,1.90
2023-03-24T21:12:54.132Z,1.30
2023-03-24T21:16:37.779Z,2.00
2023-03-24T21:20:22.223Z,2.47
2023-03-24T21:24:05.260Z,1.33
2023-03-24T21:27:48.678Z,2.97
2023-03-24T21:31:31.411Z,1.53
2023-03-24T21:35:15.095Z,1.50
2023-03-24T21:38:59.163Z,1.37
2023-03-24T21:42:42.492Z,1.20
2023-03-24T21:46:27.892Z,1.70
2023-03-24T21:50:11.476Z,1.53
2023-03-24T21:53:55.859Z,1.57
2023-03-24T21:57:39.890Z,1.77
2023-03-24T22:01:22.616Z,1.03
2023-03-24T22:05:07.010Z,2.03
2023-03-24T22:08:49.833Z,1.43
2023-03-24T22:12:32.488Z,1.53
2023-03-24T22:16:16.494Z,1.17
2023-03-24T22:19:59.216Z,2.60
2023-03-24T22:23:42.675Z,2.00
2023-03-24T22:27:25.760Z,1.87
2023-03-24T22:31:10.057Z,2.37
2023-03-24T22:34:54.076Z,1.50
2023-03-24T22:38:36.991Z,2.00
2023-03-24T22:42:19.599Z,3.70
2023-03-24T22:46:02.305Z,2.37
2023-03-24T22:49:45.020Z,1.00
2023-03-24T22:53:29.094Z,2.17
2023-03-24T22:57:12.009Z,1.40
2023-03-24T23:00:57.184Z,1.03
2023-03-24T23:04:40.832Z,1.83
2023-03-24T23:08:24.653Z,3.53
2023-03-24T23:12:11.301Z,2.53
2023-03-24T23:15:54.427Z,2.43
2023-03-24T23:19:37.462Z,1.83
2023-03-24T23:23:20.768Z,2.47
2023-03-24T23:27:04.575Z,2.47
2023-03-24T23:30:48.580Z,3.73
2023-03-24T23:34:31.362Z,4.70
2023-03-24T23:38:14.026Z,2.00
2023-03-24T23:41:56.625Z,2.90
2023-03-24T23:45:39.893Z,1.97
2023-03-24T23:49:23.980Z,3.00
2023-03-24T23:53:06.614Z,2.10
2023-03-24T23:56:51.256Z,1.57
